ADDS METAR Data INFO
IDs: Format: Raw Decoded Include TAF

Data at: 0146 UTC 18 Oct 2017

KERV 180135Z AUTO 00000KT 10SM CLR 15/09 A3018 RMK AO2 T01540085
KERV 180115Z AUTO 00000KT 10SM CLR 16/09 A3018 RMK AO2 T01620086
KERV 180055Z AUTO 00000KT 10SM CLR 18/09 A3018 RMK AO2 T01760085
KERV 180035Z AUTO 00000KT 10SM CLR 19/09 A3017 RMK AO2 T01930086
KERV 180015Z AUTO 00000KT 10SM CLR 22/08 A3017 RMK AO2 T02200080
KERV 172355Z AUTO 00000KT 10SM CLR 22/08 A3017 RMK AO2 T02240075 10261 20220
KERV 172335Z AUTO 19004KT 10SM CLR 24/08 A3017 RMK AO2 T02370076
KERV 172315Z AUTO 18004KT 10SM CLR 25/07 A3017 RMK AO2 T02470067
KERV 172255Z AUTO 19004KT 10SM CLR 25/06 A3017 RMK AO2 T02490064
KERV 172235Z AUTO 00000KT 10SM CLR 26/07 A3017 RMK AO2 T02580068
KERV 172215Z AUTO 23004KT 10SM CLR 26/07 A3017 RMK AO2 T02610072
KERV 172155Z AUTO 15003KT 10SM CLR 26/08 A3018 RMK AO2 T02610077
KERV 172135Z AUTO 24003KT 10SM CLR 26/07 A3018 RMK AO2 T02610074
KERV 172115Z AUTO 00000KT 10SM CLR 26/07 A3018 RMK AO2 T02560073
KERV 172055Z AUTO 23003KT 10SM CLR 26/07 A3019 RMK AO2 T02580069
KERV 172035Z AUTO 00000KT 10SM CLR 25/07 A3020 RMK AO2 T02490066
KERV 172015Z AUTO 02003KT 10SM CLR 25/08 A3020 RMK AO2 T02470078
KERV 171955Z AUTO 00000KT 10SM CLR 25/08 A3021 RMK AO2 T02470083
KERV 171935Z AUTO 13004KT 10SM CLR 25/08 A3022 RMK AO2 T02470083
KERV 171915Z AUTO 00000KT 10SM CLR 24/08 A3023 RMK AO2 T02410079
KERV 171855Z AUTO 08003KT 10SM CLR 23/07 A3025 RMK AO2 T02290068
KERV 171835Z AUTO 27003KT 10SM CLR 23/07 A3027 RMK AO2 T02320065
KERV 171815Z AUTO 00000KT 10SM CLR 22/05 A3028 RMK AO2 T02230054
KERV 171755Z AUTO 00000KT 10SM CLR 22/06 A3029 RMK AO2 T02180061 10220 20030
KERV 171735Z AUTO 00000KT 10SM CLR 22/07 A3030 RMK AO2 T02180070
KERV 171715Z AUTO 13004KT 10SM CLR 21/06 A3031 RMK AO2 T02050060
KERV 171655Z AUTO 13003KT 10SM CLR 20/07 A3031 RMK AO2 T01960066
KERV 171635Z AUTO 15003KT 10SM CLR 19/07 A3032 RMK AO2 T01870065
KERV 171615Z AUTO 10004KT 10SM CLR 18/07 A3032 RMK AO2 T01790066
KERV 171555Z AUTO 13005KT 10SM CLR 17/07 A3032 RMK AO2 T01700067
KERV 171535Z AUTO 00000KT 10SM CLR 15/07 A3032 RMK AO2 T01490068
KERV 171515Z AUTO 00000KT 10SM CLR 13/08 A3032 RMK AO2 T01340078
KERV 171455Z AUTO 28003KT 10SM CLR 11/07 A3032 RMK AO2 T01070068
KERV 171435Z AUTO 00000KT 10SM CLR 09/06 A3032 RMK AO2 T00920058
KERV 171415Z AUTO 31004KT 10SM CLR 08/05 A3032 RMK AO2 T00780049
KERV 171355Z AUTO 31003KT 10SM CLR 07/04 A3031 RMK AO2 T00650043
KERV 171335Z AUTO 00000KT 10SM CLR 04/03 A3031 RMK AO2 T00400032
KERV 171315Z AUTO 35004KT 10SM CLR 03/02 A3030 RMK AO2 T00300020
KERV 171255Z AUTO 34003KT 10SM CLR 04/03 A3030 RMK AO2 T00360026
KERV 171235Z AUTO 00000KT 10SM CLR 04/03 A3029 RMK AO2 T00380027
KERV 171215Z AUTO 30003KT 10SM CLR 04/03 A3029 RMK AO2 T00360025
KERV 171155Z AUTO 34003KT 10SM CLR 04/03 A3029 RMK AO2 T00360025 10070 20036
KERV 171135Z AUTO 00000KT 10SM CLR 04/03 A3029 RMK AO2 T00360025
KERV 171115Z AUTO 00000KT 10SM CLR 04/03 A3028 RMK AO2 T00380025
KERV 171055Z AUTO 00000KT 10SM CLR 04/03 A3028 RMK AO2 T00430034
KERV 171035Z AUTO 00000KT 10SM CLR 04/03 A3028 RMK AO2 T00380030
KERV 171015Z AUTO 32003KT 10SM CLR 04/03 A3027 RMK AO2 T00390027
KERV 170955Z AUTO 00000KT 10SM CLR 05/04 A3028 RMK AO2 T00500035
KERV 170935Z AUTO 31003KT 10SM CLR 05/04 A3028 RMK AO2 T00500038
KERV 170915Z AUTO 00000KT 10SM CLR 05/04 A3029 RMK AO2 T00500038
KERV 170855Z AUTO 00000KT 10SM CLR 05/04 A3029 RMK AO2 T00490039
KERV 170835Z AUTO 00000KT 10SM CLR 05/04 A3029 RMK AO2 T00500041
KERV 170815Z AUTO 34003KT 10SM CLR 05/04 A3029 RMK AO2 T00490035
KERV 170755Z AUTO 00000KT 10SM CLR 06/04 A3030 RMK AO2 T00570040
KERV 170735Z AUTO 00000KT 10SM CLR 06/04 A3030 RMK AO2 T00570040
KERV 170715Z AUTO 34004KT 10SM CLR 07/05 A3030 RMK AO2 T00650045
KERV 170655Z AUTO 00000KT 10SM CLR 06/05 A3031 RMK AO2 T00640050
KERV 170635Z AUTO 00000KT 10SM CLR 07/05 A3031 RMK AO2 T00650047
KERV 170615Z AUTO 00000KT 10SM CLR 06/04 A3031 RMK AO2 T00630043
KERV 170555Z AUTO 00000KT 10SM CLR 07/05 A3031 RMK AO2 T00670047 10206 20050 402410050
KERV 170535Z AUTO 34003KT 10SM CLR 05/04 A3032 RMK AO2 T00500036
KERV 170515Z AUTO 00000KT 10SM CLR 07/04 A3032 RMK AO2 T00660043
KERV 170455Z AUTO 35003KT 10SM CLR 07/05 A3032 RMK AO2 T00710050
KERV 170435Z AUTO 00000KT 10SM CLR 08/05 A3032 RMK AO2 T00780050
KERV 170415Z AUTO 00000KT 10SM CLR 08/05 A3032 RMK AO2 T00780050
KERV 170355Z AUTO 00000KT 10SM CLR 09/06 A3032 RMK AO2 T00920059
KERV 170335Z AUTO 00000KT 10SM CLR 11/07 A3031 RMK AO2 T01060068
KERV 170315Z AUTO 00000KT 10SM CLR 11/08 A3031 RMK AO2 T01060078
KERV 170255Z AUTO 00000KT 10SM CLR 11/07 A3031 RMK AO2 T01060066
KERV 170235Z AUTO 00000KT 10SM CLR 11/06 A3030 RMK AO2 T01130064
KERV 170215Z AUTO 00000KT 10SM CLR 11/06 A3030 RMK AO2 T01140060
KERV 170155Z AUTO 00000KT 10SM CLR 12/06 A3030 RMK AO2 T01150058
KERV 170135Z AUTO 34005KT 10SM CLR 12/06 A3030 RMK AO2 T01200061
KERV 170115Z AUTO 02004KT 10SM CLR 14/06 A3029 RMK AO2 T01350056
KERV 170055Z AUTO 02003KT 10SM CLR 15/05 A3029 RMK AO2 T01530048
KERV 170035Z AUTO 05004KT 10SM CLR 18/03 A3028 RMK AO2 T01780027
KERV 170015Z AUTO 03004KT 10SM CLR 19/03 A3027 RMK AO2 T01900032
KERV 162355Z AUTO 03004KT 10SM CLR 21/03 A3027 RMK AO2 T02120026 10241 20190
KERV 162335Z AUTO 04006KT 10SM CLR 22/01 A3027 RMK AO2 T02200013
KERV 162315Z AUTO 01005KT 10SM CLR 22/01 A3027 RMK AO2 T02210013
KERV 162255Z AUTO 03004KT 10SM CLR 23/01 A3026 RMK AO2 T02310013
KERV 162235Z AUTO 03008KT 10SM CLR 23/01 A3026 RMK AO2 T02330012
KERV 162215Z AUTO 01006KT 10SM CLR 23/01 A3026 RMK AO2 T02330010
KERV 162155Z AUTO 02007G14KT 10SM CLR 24/02 A3026 RMK AO2 T02410020
KERV 162135Z AUTO 02008KT 340V040 10SM CLR 23/02 A3027 RMK AO2 T02330017
KERV 162115Z AUTO 03006KT 10SM CLR 23/01 A3027 RMK AO2 T02330013
KERV 162055Z AUTO 35006KT 10SM CLR 23/01 A3028 RMK AO2 T02330014
KERV 162035Z AUTO 01006G15KT 10SM CLR 23/02 A3029 RMK AO2 T02300023
KERV 162015Z AUTO 01008KT 10SM CLR 23/03 A3030 RMK AO2 T02260031
KERV 161955Z AUTO 36006KT 10SM CLR 22/03 A3031 RMK AO2 T02200031
KERV 161935Z AUTO 02009KT 360V060 10SM CLR 22/03 A3032 RMK AO2 T02200030
KERV 161915Z AUTO 35004KT 10SM CLR 22/04 A3034 RMK AO2 T02200038
KERV 161855Z AUTO 02009KT 330V060 10SM CLR 22/04 A3035 RMK AO2 T02150041
KERV 161835Z AUTO 36009G14KT 10SM CLR 21/04 A3036 RMK AO2 T02050040
KERV 161815Z AUTO 03008G14KT 10SM CLR 20/03 A3037 RMK AO2 T02010032
KERV 161755Z AUTO 02007G14KT 10SM CLR 19/03 A3039 RMK AO2 T01900028 10190 20106
KERV 161740Z AUTO 01010KT 10SM CLR 19/03 A3039 RMK AO2 T01900033
KERV 161715Z AUTO 04007KT 10SM CLR 18/04 A3040 RMK AO2 T01810041
KERV 161655Z AUTO 05009G14KT 10SM CLR 18/04 A3040 RMK AO2 T01760037
KERV 161635Z AUTO 36012G15KT 10SM CLR 17/04 A3041 RMK AO2 T01690042
KERV 161615Z AUTO 03011G15KT 10SM CLR 17/04 A3041 RMK AO2 T01660040
KERV 161555Z AUTO 05010G15KT 10SM CLR 16/04 A3042 RMK AO2 T01620044
KERV 161535Z AUTO 03011KT 10SM CLR 16/05 A3042 RMK AO2 T01610053
KERV 161515Z AUTO 02011G15KT 10SM CLR 15/05 A3041 RMK AO2 T01480049
KERV 161455Z AUTO 03010G14KT 10SM CLR 15/06 A3041 RMK AO2 T01480057
KERV 161435Z AUTO 03008KT 10SM CLR 14/05 A3041 RMK AO2 T01350054
KERV 161415Z AUTO 03007KT 10SM CLR 14/06 A3040 RMK AO2 T01350059
KERV 161355Z AUTO 02004KT 10SM CLR 12/05 A3039 RMK AO2 T01200051